Logo AVAMET
Benvolgut visitant, si us plau, ingressa Recuperar contrasenya
AVAMET paisatges

Montserrat Casadalt

Dades diàries. Acumulats / Últims 30 dies disponibles

Data Temperatura (°C) Humitat rel. (%) Pressió rel. (hPa) Vent (km/h) Precipitació
Mínima Mitjana Màxima Amplitud
tèrmica
Mínima Mitjana Màxima Mínima Mitjana Màxima Predom. Mitjana Ràfega
màxima
Total
(mm)
Índex-n
Mínima Mitjana Màxima Mínima Mitjana Màxima n
0 a 1
P0 max
mm 5'
Dades mensuals acumulades fins l'últim dia disponible
02/2020 6,0 9,9 13,0 13,6 11,9 19,8 26,4 20,4 29 73 99 1.019 1.024 1.031   7,4 46,7 11,0
Dades anuals acumulades fins l'últim dia disponible
2020 3,1 8,1 13,0 11,5 7,2 17,0 26,4 23,3 27 73 99 1.012 1.024 1.033   9,6 80,5 293,4
Últims 30 dies disponibles
20-02-2020 6,9     11,1     17,4 10,5 57 85 97 1.022 1.024 1.027 W 5,8 25,7 0,4
19-02-2020 9,3     11,4     15,9 6,6 68 92 99 1.027 1.029 1.031 SSE 3,5 29,0 1,0
18-02-2020 9,8     11,0     11,9 2,1 80 96 99 1.028 1.030 1.031 NNE 1,9 22,5 8,4 0,57 1,40
17-02-2020 10,4     14,6     24,4 14,0 37 71 96 1.020 1.023 1.028 W 10,5 45,1 0,0
16-02-2020 7,4     11,9     18,4 11,0 62 89 99 1.023 1.025 1.026 SSE 3,5 25,7 0,4
15-02-2020 8,5     12,7     19,3 10,8 52 77 96 1.023 1.024 1.026 N 5,0 32,2 0,0
14-02-2020 10,7     14,1     20,4 9,7 41 62 82 1.022 1.023 1.024 N 9,7 30,6 0,0
13-02-2020 9,7     14,6     21,4 11,7 42 72 95 1.019 1.020 1.022 W 8,0 33,8 0,0
12-02-2020 11,3     13,4     18,4 7,1 56 76 94 1.021 1.022 1.024 W 5,0 27,4 0,0
11-02-2020 12,6     16,6     25,2 12,6 31 61 83 1.019 1.022 1.025 W 11,1 43,5 0,0
10-02-2020 11,7     16,2     22,6 10,9 44 58 70 1.024 1.026 1.029 W 18,3 46,7 0,0
09-02-2020 7,3     11,9     17,6 10,3 51 79 98 1.025 1.028 1.030 W 5,3 30,6 0,2
08-02-2020 6,6     10,8     18,7 12,1 51 81 96 1.022 1.023 1.026 N 3,5 24,1 0,4
07-02-2020 8,2     10,2     14,7 6,5 58 80 90 1.022 1.023 1.025 N 1,1 16,1 0,2
06-02-2020 6,0     10,1     15,9 9,9 46 81 94 1.023 1.025 1.027 N 1,3 27,4 0,0
05-02-2020 9,5     11,4     15,0 5,5 53 72 94 1.025 1.027 1.029 N 2,3 24,1 0,0
04-02-2020 13,0     17,9     25,9 12,9 31 48 65 1.020 1.023 1.025 W 12,2 43,5 0,0
03-02-2020 13,0     17,4     26,4 13,4 29 59 71 1.024 1.026 1.028 N 11,3 33,8 0,0
02-02-2020 12,7     16,7     23,2 10,5 46 66 77 1.024 1.025 1.027 N 14,3 38,6 0,0
01-02-2020 13,0     17,2     23,4 10,4 45 64 76 1.019 1.021 1.025 W 13,8 45,1 0,0
31-01-2020 12,5     15,2     20,0 7,5 52 63 72 1.019 1.020 1.022 W 18,3 48,3 0,0
30-01-2020 11,8     14,7     19,3 7,5 46 62 74 1.018 1.020 1.022 W 14,0 40,2 0,0
29-01-2020 12,8     14,9     19,3 6,5 54 67 76 1.020 1.020 1.022 W 13,4 45,1 0,0
28-01-2020 11,3     13,4     15,1 3,8 64 68 72 1.018 1.020 1.021 WNW 18,5 72,4 0,0
27-01-2020 6,4     10,6     15,7 9,3 48 65 78 1.019 1.021 1.023 W 17,7 54,7 0,0
26-01-2020 8,1     11,4     17,6 9,5 45 76 99 1.017 1.019 1.023 W 10,3 37,0 0,0
25-01-2020 9,4     10,6     12,5 3,1 81 93 98 1.016 1.018 1.020 ESE 2,6 17,7 2,4
24-01-2020 8,2     10,1     13,3 5,1 72 89 97 1.019 1.021 1.022 NE 3,9 16,1 0,0
23-01-2020 5,6     8,9     12,3 6,7 67 84 96 1.017 1.019 1.022 W 6,3 19,3 0,2
22-01-2020 4,9     7,8     9,9 5,0 89 97 99 1.016 1.017 1.019 NE 11,1 33,8 137,8
Últims 13 mesos disponibles
01/2020 3,1 6,9 12,8 10,2 7,2 15,1 20,0 16,9 46 72 98 1.015 1.024 1.031 W 11,1 80,5 282,4
12/2019 5,6 9,7 15,5 12,5 10,4 16,7 23,2 17,6 50 70 98 1.000 1.017 1.031 W 12,4 98,2 85,8
11/2019 4,4 10,4 18,7 14,0 14,8 19,1 28,6 24,2 40 56 76 996 1.009 1.017 W 13,1 78,9 8,2
10/2019 9,9 15,2 18,9 19,2 14,3 25,2 34,6 24,7 36 65 87 1.006 1.014 1.020 W 6,3 54,7 28,4
09/2019 13,8 18,9 21,9 22,5 19,2 27,4 33,6 19,8 30 70 87 1.008 1.015 1.023 W 7,1 69,2 90,8
08/2019 16,9 21,1 25,1 25,6 26,3 31,6 41,7 24,8 34 65 79 1.008 1.013 1.018 ESE 7,4 51,5 10,6
07/2019 19,9 21,4 23,4 26,0 27,0 31,8 37,6 17,7 39 61 77 1.003 1.012 1.019 SE 6,8 54,7 9,4
06/2019 12,5 17,1 23,2 22,1 22,2 28,1 36,9 24,4 32 58 76 1.006 1.013 1.020 ESE 7,5 66,0 0,0
05/2019 8,2 13,4 18,4 17,9 18,0 23,5 31,8 23,6 45 63 87 1.003 1.013 1.022 N 7,2 61,2 14,0
04/2019 6,7 10,2 12,8 14,1 13,4 19,8 29,8 23,1 33 65 99 998 1.011 1.023 W 10,5 67,6 175,8
03/2019 6,4 9,6 13,7 14,1 10,9 20,5 29,1 22,7 31 52 91 1.008 1.021 1.028 N 8,0 66,0 28,2
02/2019 3,4 7,3 12,1 11,6 12,3 18,2 26,8 23,4 32 59 78 993 1.023 1.032 W 8,3 83,7 1,0
01/2019 1,6 6,3 10,4 10,4 12,0 16,4 21,4 19,8 35 52 71 1.000 1.017 1.029 W 11,9 80,5 0,2
Tots els anys disponibles
2019 1,6 13,4 25,1 17,6 10,4 23,2 41,7 40,1 30 61 99 993 1.015 1.032 W 8,9 98,2 452,4
2018 1,1 13,5 25,3 17,4 7,4 22,8 38,0 36,9 37 70 99 998 1.016 1.029 W 10,2 86,9 734,0
2017 -0,7 13,5 25,3 17,6 6,6 23,1 38,0 38,7 9,1 85,3 336,2
2016 1,8 13,8 27,1 17,7 9,6 22,9 39,6 37,8 9,8 83,7 541,0
2015 0,7 13,6 21,1 17,6 21,0 22,9 41,8 41,1 6,2 83,7 468,4
2014 1,3 13,8 23,5 17,8 8,8 23,2 41,1 39,8 7,6 82,1 324,0
2013 1,2 12,9 16,8 16,8 18,7 22,2 36,1 34,9 8,4 78,9 337,8
2012 -2,3 13,0 18,1 17,1 21,4 22,5 37,2 39,5 7,2 82,1 431,2
2011 -1,1 13,5 22,8 17,1 6,6 22,2 39,0 40,1 8,4 83,7 426,0
2010 -1,8 12,4 26,2 16,3 3,7 21,4 42,0 43,8 9,2 109,4 559,4
2009 -2,2 13,2 23,7 17,1 4,6 22,5 41,7 43,9 9,7 99,8 807,4
2008 1,6 12,5 17,1 21,7 37,0 35,4 10,6 74,0 733,8
2007 2,1 13,0 17,4 21,7 37,6 35,5 42 67 88 1.027 1.027 1.027 2,3 37,0 698,8
2006 -3,2 13,4 17,8 22,2 35,6 38,8 48 70 97 3,1 45,0 531,7
2005 -4,9 12,1 16,6 21,1 36,5 41,4 357,2
Temperatura (°C)
Humitat relativa (%)
Velocitat del vent i ràfega màxima (km/h)
Direcció del vent (°)
Pressió (hPa)
Precipitació (mm)
Nota sobre les dades: s'avisa a l'usuari de la provisionalitat i no oficialitat d'aquestes dades
Logo AVAMET blanc
Web allotjada a Sollutia
Llicència de Creative CommonsLa web d'AVAMET i els seus continguts estan subjectes a una llicència de
Reconeixement - No Comercial - Compartir igual
Últimes estacions:  Sorita (AVAMET), Gorga (Soci), Massalavés - Ajuntament (Soci/Inforatge), Albuixech - Polígon (Inforatge), La Torre d'en Besora (Ajuntament soci), Xixona - Sogorb Barranc Blanc (Soci), Pedreguer - Patronat (Soci) - - -